createdAt,value
2022-08-25T00:00:25.506Z,3.70
2022-08-25T00:02:58.380Z,3.97
2022-08-25T00:05:33.558Z,3.60
2022-08-25T00:08:06.810Z,3.63
2022-08-25T00:10:40.853Z,3.77
2022-08-25T00:13:11.727Z,3.73
2022-08-25T00:15:42.491Z,3.67
2022-08-25T00:18:19.897Z,3.60
2022-08-25T00:20:50.969Z,3.33
2022-08-25T00:23:22.266Z,3.00
2022-08-25T00:25:54.632Z,3.03
2022-08-25T00:28:25.602Z,3.17
2022-08-25T00:30:58.345Z,3.30
2022-08-25T00:33:29.095Z,3.47
2022-08-25T00:36:00.860Z,3.33
2022-08-25T00:38:32.252Z,3.23
2022-08-25T00:41:11.951Z,3.07
2022-08-25T00:43:50.416Z,3.50
2022-08-25T00:46:23.205Z,3.60
2022-08-25T00:48:58.674Z,3.50
2022-08-25T00:51:45.486Z,3.60
2022-08-25T00:54:21.079Z,3.43
2022-08-25T00:56:54.549Z,3.20
2022-08-25T00:59:27.191Z,3.63
2022-08-25T01:01:59.666Z,3.20
2022-08-25T01:04:30.702Z,3.87
2022-08-25T01:07:03.450Z,3.97
2022-08-25T01:09:35.696Z,4.00
2022-08-25T01:12:08.561Z,3.50
2022-08-25T01:14:41.061Z,3.57
2022-08-25T01:17:11.807Z,3.93
2022-08-25T01:19:42.792Z,3.83
2022-08-25T01:22:15.320Z,3.87
2022-08-25T01:24:51.596Z,3.57
2022-08-25T01:27:22.317Z,3.23
2022-08-25T01:29:53.371Z,3.10
2022-08-25T01:32:24.089Z,3.53
2022-08-25T01:34:54.840Z,3.53
2022-08-25T01:37:27.217Z,3.87
2022-08-25T01:39:58.058Z,3.67
2022-08-25T01:42:44.666Z,3.80
2022-08-25T01:45:15.411Z,3.17
2022-08-25T01:47:46.211Z,3.43
2022-08-25T01:50:17.561Z,3.50
2022-08-25T01:52:57.063Z,3.60
2022-08-25T01:55:28.478Z,3.60
2022-08-25T01:58:01.003Z,4.43
2022-08-25T02:00:32.276Z,4.07
2022-08-25T02:03:03.107Z,3.40
2022-08-25T02:05:36.428Z,3.20
2022-08-25T02:08:09.024Z,3.67
2022-08-25T02:10:40.214Z,3.20
2022-08-25T02:13:11.795Z,3.63
2022-08-25T02:15:46.340Z,3.77
2022-08-25T02:18:17.092Z,3.60
2022-08-25T02:20:49.256Z,4.00
2022-08-25T02:23:21.897Z,3.30
2022-08-25T02:25:52.666Z,3.47
2022-08-25T02:28:23.411Z,3.70
2022-08-25T02:30:58.548Z,3.17
2022-08-25T02:33:32.630Z,3.20
2022-08-25T02:36:04.447Z,3.33
2022-08-25T02:38:37.707Z,3.50
2022-08-25T02:41:14.992Z,3.53
2022-08-25T02:43:46.782Z,3.83
2022-08-25T02:46:18.822Z,3.63
2022-08-25T02:48:50.391Z,3.57
2022-08-25T02:51:21.604Z,2.80
2022-08-25T02:53:54.431Z,3.10
2022-08-25T02:56:25.218Z,2.93
2022-08-25T02:58:56.042Z,2.90
2022-08-25T03:01:29.085Z,3.50
2022-08-25T03:04:00.595Z,3.53
2022-08-25T03:06:31.757Z,3.47
2022-08-25T03:09:04.220Z,3.13
2022-08-25T03:11:34.987Z,3.13
2022-08-25T03:14:05.720Z,2.93
2022-08-25T03:16:36.774Z,2.87
2022-08-25T03:19:07.618Z,3.30
2022-08-25T03:21:39.919Z,2.30
2022-08-25T03:24:12.399Z,3.30
2022-08-25T03:26:56.961Z,3.50
2022-08-25T03:29:29.345Z,2.77
2022-08-25T03:32:00.830Z,2.67
2022-08-25T03:34:32.880Z,2.63
2022-08-25T03:37:03.775Z,3.10
2022-08-25T03:39:36.197Z,3.23
2022-08-25T03:42:07.269Z,3.10
2022-08-25T03:44:38.092Z,3.50
2022-08-25T03:47:09.232Z,2.63
2022-08-25T03:49:40.061Z,3.10
2022-08-25T03:52:10.815Z,2.90
2022-08-25T03:54:43.196Z,2.70
2022-08-25T03:57:14.144Z,3.23
2022-08-25T03:59:44.889Z,2.90
2022-08-25T04:02:15.662Z,3.80
2022-08-25T04:04:46.463Z,2.60
2022-08-25T04:07:17.269Z,2.97
2022-08-25T04:09:49.785Z,2.87
2022-08-25T04:12:20.488Z,2.67
2022-08-25T04:14:53.822Z,2.97
2022-08-25T04:17:24.569Z,3.03
2022-08-25T04:19:55.289Z,2.80
2022-08-25T04:22:26.006Z,3.20
2022-08-25T04:25:02.457Z,3.00
2022-08-25T04:27:33.204Z,3.30
2022-08-25T04:30:03.954Z,2.60
2022-08-25T04:32:34.724Z,3.23
2022-08-25T04:35:05.984Z,2.53
2022-08-25T04:37:36.782Z,3.40
2022-08-25T04:40:10.357Z,2.53
2022-08-25T04:42:41.174Z,2.93
2022-08-25T04:45:12.348Z,2.23
2022-08-25T04:47:43.546Z,2.70
2022-08-25T04:50:14.334Z,2.40
2022-08-25T04:52:45.099Z,2.77
2022-08-25T04:55:19.271Z,3.00
2022-08-25T04:57:50.015Z,2.40
2022-08-25T05:00:22.048Z,2.57
2022-08-25T05:02:52.782Z,2.60
2022-08-25T05:05:23.543Z,2.40
2022-08-25T05:07:54.287Z,3.00
2022-08-25T05:10:27.501Z,3.00
2022-08-25T05:12:58.300Z,2.33
2022-08-25T05:15:46.276Z,2.20
2022-08-25T05:18:17.418Z,2.50
2022-08-25T05:20:48.420Z,2.33
2022-08-25T05:23:19.434Z,2.90
2022-08-25T05:25:52.342Z,2.30
2022-08-25T05:28:23.788Z,2.80
2022-08-25T05:30:54.496Z,2.13
2022-08-25T05:33:25.222Z,2.73
2022-08-25T05:36:01.267Z,3.20
2022-08-25T05:38:32.093Z,2.40
2022-08-25T05:41:06.721Z,2.60
2022-08-25T05:43:39.002Z,2.67
2022-08-25T05:46:12.011Z,2.27
2022-08-25T05:48:43.348Z,2.80
2022-08-25T05:51:15.772Z,2.80
2022-08-25T05:53:48.367Z,2.50
2022-08-25T05:56:21.334Z,3.30
2022-08-25T05:58:52.617Z,2.57
2022-08-25T06:01:45.411Z,2.60
2022-08-25T06:04:16.643Z,3.10
2022-08-25T06:06:48.221Z,2.80
2022-08-25T06:09:18.967Z,2.53
2022-08-25T06:11:54.706Z,2.20
2022-08-25T06:14:26.571Z,2.37
2022-08-25T06:16:57.772Z,2.77
2022-08-25T06:19:28.526Z,2.70
2022-08-25T06:22:00.479Z,2.70
2022-08-25T06:24:32.164Z,2.87
2022-08-25T06:27:04.544Z,2.90
2022-08-25T06:29:35.373Z,2.73
2022-08-25T06:32:09.342Z,2.70
2022-08-25T06:34:40.109Z,2.80
2022-08-25T06:37:11.869Z,2.90
2022-08-25T06:39:42.699Z,2.47
2022-08-25T06:42:15.052Z,3.30
2022-08-25T06:44:45.996Z,2.50
2022-08-25T06:47:17.215Z,2.83
2022-08-25T06:49:48.212Z,3.20
2022-08-25T06:52:18.975Z,3.13
2022-08-25T06:54:50.043Z,3.07
2022-08-25T06:57:22.746Z,2.50
2022-08-25T06:59:53.890Z,2.70
2022-08-25T07:02:25.945Z,2.80
2022-08-25T07:04:56.747Z,2.80
2022-08-25T07:07:27.529Z,2.60
2022-08-25T07:10:14.394Z,2.83
2022-08-25T07:12:52.629Z,2.90
2022-08-25T07:15:23.707Z,2.87
2022-08-25T07:17:54.539Z,2.60
2022-08-25T07:23:00.974Z,2.83
2022-08-25T07:25:31.831Z,2.87
2022-08-25T07:28:04.607Z,3.20
2022-08-25T07:30:35.556Z,2.90
2022-08-25T07:33:06.957Z,2.90
2022-08-25T07:35:38.142Z,2.53
2022-08-25T07:38:13.016Z,3.03
2022-08-25T07:40:46.307Z,3.00
2022-08-25T07:43:26.100Z,2.67
2022-08-25T07:45:56.948Z,2.77
2022-08-25T07:48:27.969Z,3.40
2022-08-25T07:50:58.712Z,2.83
2022-08-25T07:53:29.431Z,2.40
2022-08-25T07:56:00.228Z,2.80
2022-08-25T07:58:32.693Z,3.30
2022-08-25T08:01:05.384Z,3.20
2022-08-25T08:03:50.079Z,3.00
2022-08-25T08:06:23.801Z,3.07
2022-08-25T08:08:57.824Z,3.00
2022-08-25T08:11:31.788Z,3.13
2022-08-25T08:14:04.999Z,2.73
2022-08-25T08:16:35.896Z,4.10
2022-08-25T08:19:07.445Z,2.73
2022-08-25T08:21:39.510Z,3.07
2022-08-25T08:24:31.162Z,2.90
2022-08-25T08:27:01.996Z,2.50
2022-08-25T08:29:34.405Z,3.70
2022-08-25T08:32:06.544Z,3.30
2022-08-25T08:34:38.908Z,3.20
2022-08-25T08:37:10.336Z,2.73
2022-08-25T08:39:41.811Z,3.30
2022-08-25T08:42:25.979Z,3.57
2022-08-25T08:45:15.914Z,3.53
2022-08-25T08:47:56.890Z,3.37
2022-08-25T08:50:34.364Z,3.23
2022-08-25T08:53:11.399Z,3.43
2022-08-25T08:55:51.871Z,2.87
2022-08-25T08:58:26.403Z,2.93
2022-08-25T09:01:02.602Z,3.30
2022-08-25T09:03:40.073Z,3.13
2022-08-25T09:06:14.281Z,3.03
2022-08-25T09:08:46.824Z,2.90
2022-08-25T09:11:28.304Z,3.30
2022-08-25T09:14:21.123Z,3.03
2022-08-25T09:17:00.520Z,3.20
2022-08-25T09:20:01.897Z,3.60
2022-08-25T09:22:50.669Z,3.30
2022-08-25T09:28:24.882Z,2.87
2022-08-25T09:31:00.734Z,3.10
2022-08-25T09:33:35.583Z,3.23
2022-08-25T09:36:08.959Z,3.20
2022-08-25T09:38:40.199Z,3.93
2022-08-25T09:41:12.135Z,3.47
2022-08-25T09:43:46.500Z,3.27
2022-08-25T09:46:20.932Z,3.40
2022-08-25T09:48:57.466Z,3.30
2022-08-25T09:51:42.198Z,3.03
2022-08-25T09:54:43.954Z,3.33
2022-08-25T09:57:35.695Z,3.43
2022-08-25T10:00:23.587Z,3.07
2022-08-25T10:03:15.632Z,3.90
2022-08-25T10:06:05.768Z,3.67
2022-08-25T10:08:40.949Z,3.20
2022-08-25T10:11:14.659Z,3.20
2022-08-25T10:13:48.064Z,3.50
2022-08-25T10:16:32.132Z,3.50
2022-08-25T10:19:10.774Z,3.30
2022-08-25T10:21:44.992Z,3.53
2022-08-25T10:24:16.987Z,3.30
2022-08-25T10:26:58.065Z,3.60
2022-08-25T10:29:42.664Z,2.97
2022-08-25T10:32:19.192Z,3.30
2022-08-25T10:34:52.871Z,3.50
2022-08-25T10:37:38.556Z,3.87
2022-08-25T10:40:18.442Z,3.20
2022-08-25T10:43:00.263Z,3.20
2022-08-25T10:45:48.642Z,2.93
2022-08-25T10:48:44.801Z,3.20
2022-08-25T10:51:32.377Z,3.50
2022-08-25T10:54:13.536Z,2.97
2022-08-25T10:56:47.481Z,2.93
2022-08-25T10:59:32.941Z,4.67
2022-08-25T11:02:31.335Z,4.10
2022-08-25T11:05:08.878Z,3.70
2022-08-25T11:07:44.361Z,4.13
2022-08-25T11:10:21.534Z,3.07
2022-08-25T11:12:57.668Z,3.50
2022-08-25T11:15:34.619Z,2.97
2022-08-25T11:18:14.569Z,3.10
2022-08-25T11:20:52.511Z,3.13
2022-08-25T11:23:26.538Z,3.70
2022-08-25T11:26:03.843Z,3.50
2022-08-25T11:28:38.867Z,3.00
2022-08-25T11:31:11.663Z,3.73
2022-08-25T11:33:42.473Z,3.30
2022-08-25T11:36:21.666Z,3.30
2022-08-25T11:39:13.001Z,2.80
2022-08-25T11:41:59.053Z,3.10
2022-08-25T11:45:07.835Z,3.53
2022-08-25T11:47:56.236Z,3.70
2022-08-25T11:50:35.173Z,3.17
2022-08-25T11:53:28.136Z,3.00
2022-08-25T11:56:03.512Z,3.17
2022-08-25T11:58:53.685Z,3.27
2022-08-25T12:02:03.975Z,3.07
2022-08-25T12:04:44.689Z,3.67
2022-08-25T12:07:28.394Z,3.60
2022-08-25T12:10:15.760Z,4.37
2022-08-25T12:13:30.605Z,3.10
2022-08-25T12:16:04.213Z,3.17
2022-08-25T12:18:50.430Z,3.30
2022-08-25T12:21:35.834Z,3.80
2022-08-25T12:24:17.272Z,2.90
2022-08-25T12:26:57.396Z,3.90
2022-08-25T12:29:35.960Z,3.50
2022-08-25T12:32:22.584Z,3.00
2022-08-25T12:35:34.544Z,3.13
2022-08-25T12:38:11.515Z,3.20
2022-08-25T12:40:56.378Z,3.00
2022-08-25T12:43:37.647Z,3.43
2022-08-25T12:46:36.473Z,3.20
2022-08-25T12:49:31.708Z,3.83
2022-08-25T12:52:07.476Z,3.17
2022-08-25T12:54:49.627Z,2.90
2022-08-25T12:57:37.219Z,3.23
2022-08-25T13:00:19.575Z,3.07
2022-08-25T13:03:16.330Z,3.13
2022-08-25T13:06:10.918Z,3.57
2022-08-25T13:09:08.872Z,3.93
2022-08-25T13:11:46.041Z,3.20
2022-08-25T13:14:26.960Z,3.63
2022-08-25T13:16:58.723Z,3.17
2022-08-25T13:19:34.746Z,3.60
2022-08-25T13:22:16.295Z,4.10
2022-08-25T13:24:50.790Z,3.80
2022-08-25T13:27:27.711Z,3.23
2022-08-25T13:30:03.727Z,3.30
2022-08-25T13:32:36.869Z,3.13
2022-08-25T13:35:21.705Z,3.47
2022-08-25T13:37:54.745Z,3.00
2022-08-25T13:40:27.519Z,3.77
2022-08-25T13:43:02.760Z,4.10
2022-08-25T13:45:41.091Z,3.50
2022-08-25T13:48:20.964Z,3.10
2022-08-25T13:50:54.356Z,3.20
2022-08-25T13:53:30.355Z,3.17
2022-08-25T13:56:02.914Z,3.20
2022-08-25T13:58:45.170Z,3.23
2022-08-25T14:01:44.181Z,3.00
2022-08-25T14:04:34.250Z,3.87
2022-08-25T14:07:14.846Z,3.40
2022-08-25T14:09:53.937Z,3.50
2022-08-25T14:12:38.280Z,3.80
2022-08-25T14:15:14.499Z,3.43
2022-08-25T14:17:48.180Z,3.93
2022-08-25T14:20:26.436Z,3.60
2022-08-25T14:23:01.718Z,3.43
2022-08-25T14:25:35.733Z,3.80
2022-08-25T14:28:08.502Z,4.00
2022-08-25T14:30:43.479Z,3.97
2022-08-25T14:33:17.894Z,3.90
2022-08-25T14:35:52.543Z,3.60
2022-08-25T14:38:25.351Z,3.97
2022-08-25T14:40:59.257Z,3.27
2022-08-25T14:43:31.551Z,3.70
2022-08-25T14:46:05.788Z,4.20
2022-08-25T14:48:42.352Z,3.93
2022-08-25T14:51:16.621Z,4.00
2022-08-25T14:53:47.728Z,4.27
2022-08-25T14:56:20.144Z,4.40
2022-08-25T14:58:54.266Z,3.57
2022-08-25T15:01:29.491Z,3.53
2022-08-25T15:04:04.861Z,3.63
2022-08-25T15:06:37.804Z,3.60
2022-08-25T15:09:12.037Z,3.87
2022-08-25T15:11:46.421Z,3.13
2022-08-25T15:14:18.273Z,3.20
2022-08-25T15:16:51.417Z,3.40
2022-08-25T15:19:24.668Z,4.10
2022-08-25T15:21:57.935Z,3.97
2022-08-25T15:24:32.950Z,3.73
2022-08-25T15:27:10.035Z,3.30
2022-08-25T15:29:41.695Z,2.70
2022-08-25T15:32:13.242Z,3.50
2022-08-25T15:34:45.072Z,2.90
2022-08-25T15:37:18.546Z,3.73
2022-08-25T15:39:49.666Z,3.40
2022-08-25T15:42:23.061Z,3.03
2022-08-25T15:44:55.986Z,3.20
2022-08-25T15:47:30.007Z,2.43
2022-08-25T15:50:10.255Z,3.00
2022-08-25T15:52:47.425Z,3.20
2022-08-25T15:55:20.216Z,3.10
2022-08-25T15:57:52.655Z,3.07
2022-08-25T16:00:25.083Z,2.83
2022-08-25T16:02:55.924Z,2.73
2022-08-25T16:05:27.110Z,2.97
2022-08-25T16:08:00.968Z,3.10
2022-08-25T16:10:36.826Z,3.10
2022-08-25T16:13:11.956Z,3.10
2022-08-25T16:15:43.003Z,3.13
2022-08-25T16:18:13.804Z,2.37
2022-08-25T16:20:47.633Z,3.50
2022-08-25T16:23:20.816Z,2.90
2022-08-25T16:25:51.991Z,2.90
2022-08-25T16:28:24.920Z,3.50
2022-08-25T16:30:55.735Z,2.60
2022-08-25T16:33:26.514Z,2.53
2022-08-25T16:36:05.848Z,3.63
2022-08-25T16:38:37.686Z,2.70
2022-08-25T16:41:09.378Z,3.30
2022-08-25T16:43:42.425Z,3.30
2022-08-25T16:46:17.386Z,2.90
2022-08-25T16:48:49.372Z,2.47
2022-08-25T16:51:29.441Z,3.40
2022-08-25T16:54:20.386Z,2.77
2022-08-25T16:56:54.909Z,3.03
2022-08-25T16:59:28.389Z,3.10
2022-08-25T17:01:59.162Z,3.33
2022-08-25T17:04:32.142Z,3.20
2022-08-25T17:07:03.409Z,3.03
2022-08-25T17:09:35.817Z,3.53
2022-08-25T17:12:09.852Z,2.90
2022-08-25T17:14:42.188Z,3.00
2022-08-25T17:17:12.940Z,3.20
2022-08-25T17:19:46.443Z,3.40
2022-08-25T17:22:19.553Z,3.73
2022-08-25T17:24:59.205Z,2.90
2022-08-25T17:27:31.469Z,3.70
2022-08-25T17:30:03.809Z,4.00
2022-08-25T17:32:34.565Z,3.27
2022-08-25T17:35:08.259Z,3.40
2022-08-25T17:37:39.122Z,3.67
2022-08-25T17:40:11.483Z,3.23
2022-08-25T17:42:43.083Z,4.83
2022-08-25T17:45:15.727Z,4.20
2022-08-25T17:47:46.448Z,3.40
2022-08-25T17:50:17.222Z,3.93
2022-08-25T17:52:48.416Z,4.17
2022-08-25T17:55:22.370Z,3.43
2022-08-25T17:57:54.047Z,4.57
2022-08-25T18:00:27.473Z,3.93
2022-08-25T18:02:59.241Z,4.50
2022-08-25T18:05:30.417Z,3.73
2022-08-25T18:08:01.209Z,3.90
2022-08-25T18:10:34.380Z,3.83
2022-08-25T18:13:05.079Z,4.23
2022-08-25T18:15:37.813Z,4.07
2022-08-25T18:18:13.368Z,3.60
2022-08-25T18:20:48.401Z,3.60
2022-08-25T18:23:20.382Z,4.07
2022-08-25T18:25:52.500Z,4.07
2022-08-25T18:28:32.038Z,4.40
2022-08-25T18:31:04.495Z,3.60
2022-08-25T18:33:35.456Z,3.57
2022-08-25T18:36:06.681Z,3.73
2022-08-25T18:38:58.002Z,3.83
2022-08-25T18:41:31.993Z,4.50
2022-08-25T18:44:02.825Z,4.37
2022-08-25T18:46:35.290Z,4.50
2022-08-25T18:49:07.086Z,4.33
2022-08-25T18:51:39.570Z,4.10
2022-08-25T18:54:22.842Z,4.97
2022-08-25T18:56:55.388Z,5.07
2022-08-25T18:59:26.119Z,4.00
2022-08-25T19:01:58.499Z,4.63
2022-08-25T19:04:33.954Z,4.07
2022-08-25T19:07:05.040Z,4.03
2022-08-25T19:09:38.946Z,4.57
2022-08-25T19:12:11.809Z,4.87
2022-08-25T19:14:53.180Z,4.60
2022-08-25T19:17:25.698Z,4.93
2022-08-25T19:19:58.700Z,4.63
2022-08-25T19:22:41.274Z,4.90
2022-08-25T19:25:13.781Z,4.30
2022-08-25T19:27:44.881Z,4.50
2022-08-25T19:30:19.359Z,4.87
2022-08-25T19:32:52.021Z,4.80
2022-08-25T19:35:30.778Z,4.60
2022-08-25T19:38:03.496Z,4.50
2022-08-25T19:40:38.686Z,4.67
2022-08-25T19:43:09.662Z,4.90
2022-08-25T19:45:41.725Z,5.50
2022-08-25T19:48:16.222Z,5.40
2022-08-25T19:50:47.507Z,5.00
2022-08-25T19:53:19.727Z,4.90
2022-08-25T19:55:50.748Z,5.13
2022-08-25T19:58:21.481Z,4.87
2022-08-25T20:00:52.170Z,5.30
2022-08-25T20:03:24.673Z,5.10
2022-08-25T20:05:56.689Z,5.23
2022-08-25T20:08:31.403Z,5.07
2022-08-25T20:11:02.103Z,5.73
2022-08-25T20:13:32.834Z,5.50
2022-08-25T20:16:03.816Z,5.80
2022-08-25T20:18:38.149Z,5.00
2022-08-25T20:21:11.041Z,5.57
2022-08-25T20:23:58.746Z,5.00
2022-08-25T20:26:29.966Z,4.83
2022-08-25T20:29:00.800Z,4.33
2022-08-25T20:31:32.095Z,4.50
2022-08-25T20:34:04.628Z,4.90
2022-08-25T20:36:36.784Z,4.37
2022-08-25T20:39:09.690Z,4.63
2022-08-25T20:41:41.028Z,3.83
2022-08-25T20:44:11.739Z,4.57
2022-08-25T20:46:42.633Z,4.37
2022-08-25T20:49:15.024Z,4.33
2022-08-25T20:51:46.149Z,4.80
2022-08-25T20:54:17.002Z,4.90
2022-08-25T20:56:47.931Z,4.23
2022-08-25T20:59:19.012Z,4.50
2022-08-25T21:01:50.549Z,4.47
2022-08-25T21:04:26.138Z,4.40
2022-08-25T21:06:56.875Z,4.00
2022-08-25T21:09:31.204Z,4.60
2022-08-25T21:12:02.229Z,4.37
2022-08-25T21:14:33.217Z,4.43
2022-08-25T21:17:04.212Z,4.00
2022-08-25T21:19:37.589Z,4.10
2022-08-25T21:22:10.953Z,4.30
2022-08-25T21:24:42.024Z,4.00
2022-08-25T21:27:15.604Z,3.90
2022-08-25T21:29:54.477Z,4.40
2022-08-25T21:32:26.553Z,4.40
2022-08-25T21:34:59.371Z,4.60
2022-08-25T21:37:30.527Z,4.47
2022-08-25T21:40:01.429Z,3.90
2022-08-25T21:42:32.198Z,3.90
2022-08-25T21:45:03.407Z,4.03
2022-08-25T21:47:34.155Z,4.60
2022-08-25T21:50:07.622Z,4.00
2022-08-25T21:52:38.660Z,4.00
2022-08-25T21:55:16.024Z,4.80
2022-08-25T21:57:47.209Z,4.50
2022-08-25T22:00:18.673Z,4.23
2022-08-25T22:02:53.725Z,5.13
2022-08-25T22:05:26.200Z,4.40
2022-08-25T22:07:57.198Z,4.47
2022-08-25T22:10:28.371Z,4.80
2022-08-25T22:12:59.094Z,4.60
2022-08-25T22:15:31.291Z,4.70
2022-08-25T22:18:02.017Z,5.00
2022-08-25T22:20:35.513Z,4.73
2022-08-25T22:23:10.063Z,5.43
2022-08-25T22:25:51.225Z,4.47
2022-08-25T22:28:22.322Z,5.00
2022-08-25T22:30:54.280Z,4.70
2022-08-25T22:33:25.260Z,4.77
2022-08-25T22:36:00.071Z,4.97
2022-08-25T22:38:30.953Z,5.10
2022-08-25T22:41:05.741Z,4.87
2022-08-25T22:43:36.435Z,5.00
2022-08-25T22:46:08.234Z,4.67
2022-08-25T22:48:43.567Z,4.80
2022-08-25T22:51:20.703Z,5.50
2022-08-25T22:53:52.213Z,4.83
2022-08-25T22:56:30.627Z,4.70
2022-08-25T22:59:03.432Z,4.90
2022-08-25T23:01:35.424Z,4.90
2022-08-25T23:04:07.204Z,5.00
2022-08-25T23:06:39.812Z,4.80
2022-08-25T23:09:11.603Z,4.40
2022-08-25T23:11:42.835Z,5.17
2022-08-25T23:14:14.401Z,4.67
2022-08-25T23:16:46.080Z,4.67
2022-08-25T23:19:17.146Z,4.50
2022-08-25T23:22:05.880Z,5.57
2022-08-25T23:24:36.628Z,4.37
2022-08-25T23:27:08.622Z,5.13
2022-08-25T23:29:41.415Z,4.50
2022-08-25T23:32:14.957Z,5.37
2022-08-25T23:34:47.382Z,5.40
2022-08-25T23:37:20.010Z,5.03
2022-08-25T23:39:51.168Z,4.83
2022-08-25T23:42:23.012Z,4.87
2022-08-25T23:44:53.727Z,4.70
2022-08-25T23:47:24.452Z,4.33
2022-08-25T23:49:55.171Z,4.77
2022-08-25T23:52:28.166Z,4.93
2022-08-25T23:54:58.921Z,4.60
2022-08-25T23:57:29.689Z,4.50
